sensor_id;sensor_type;location;lat;lon;timestamp;temperature;humidity
1361;DHT22;674;45.552;-122.600;2023-06-24T00:00:53;27.50;1.00
1361;DHT22;674;45.552;-122.600;2023-06-24T00:03:21;27.20;1.00
1361;DHT22;674;45.552;-122.600;2023-06-24T00:05:49;26.90;1.00
1361;DHT22;674;45.552;-122.600;2023-06-24T00:08:18;26.60;1.00
1361;DHT22;674;45.552;-122.600;2023-06-24T00:10:50;26.50;1.00
1361;DHT22;674;45.552;-122.600;2023-06-24T00:13:18;26.40;1.00
1361;DHT22;674;45.552;-122.600;2023-06-24T00:15:46;26.40;1.00
1361;DHT22;674;45.552;-122.600;2023-06-24T00:18:14;26.40;1.00
1361;DHT22;674;45.552;-122.600;2023-06-24T00:20:42;26.40;1.00
1361;DHT22;674;45.552;-122.600;2023-06-24T00:23:11;26.40;1.00
1361;DHT22;674;45.552;-122.600;2023-06-24T00:25:42;26.30;1.00
1361;DHT22;674;45.552;-122.600;2023-06-24T00:28:10;26.20;1.00
1361;DHT22;674;45.552;-122.600;2023-06-24T00:30:38;26.00;1.00
1361;DHT22;674;45.552;-122.600;2023-06-24T00:33:06;25.90;1.00
1361;DHT22;674;45.552;-122.600;2023-06-24T00:35:38;25.80;1.00
1361;DHT22;674;45.552;-122.600;2023-06-24T00:38:06;25.70;1.00
1361;DHT22;674;45.552;-122.600;2023-06-24T00:40:35;25.60;1.00
1361;DHT22;674;45.552;-122.600;2023-06-24T00:43:03;25.60;1.00
1361;DHT22;674;45.552;-122.600;2023-06-24T00:45:31;25.40;1.00
1361;DHT22;674;45.552;-122.600;2023-06-24T00:48:00;25.40;1.00
1361;DHT22;674;45.552;-122.600;2023-06-24T00:50:28;25.40;1.00
1361;DHT22;674;45.552;-122.600;2023-06-24T00:52:57;25.30;1.00
1361;DHT22;674;45.552;-122.600;2023-06-24T00:55:25;25.20;1.00
1361;DHT22;674;45.552;-122.600;2023-06-24T00:57:56;25.20;1.00
1361;DHT22;674;45.552;-122.600;2023-06-24T01:00:27;25.00;1.00
1361;DHT22;674;45.552;-122.600;2023-06-24T01:02:55;25.00;1.00
1361;DHT22;674;45.552;-122.600;2023-06-24T01:05:28;25.00;1.00
1361;DHT22;674;45.552;-122.600;2023-06-24T01:07:56;24.80;1.00
1361;DHT22;674;45.552;-122.600;2023-06-24T01:10:24;24.90;1.00
1361;DHT22;674;45.552;-122.600;2023-06-24T01:12:53;25.00;1.00
1361;DHT22;674;45.552;-122.600;2023-06-24T01:15:21;25.10;1.00
1361;DHT22;674;45.552;-122.600;2023-06-24T01:23:31;25.30;1.00
1361;DHT22;674;45.552;-122.600;2023-06-24T01:28:41;25.60;1.00
1361;DHT22;674;45.552;-122.600;2023-06-24T01:36:28;26.10;1.00
1361;DHT22;674;45.552;-122.600;2023-06-24T01:39:07;26.10;1.00
1361;DHT22;674;45.552;-122.600;2023-06-24T01:41:40;26.20;1.00
1361;DHT22;674;45.552;-122.600;2023-06-24T01:44:09;26.30;1.00
1361;DHT22;674;45.552;-122.600;2023-06-24T01:46:38;26.30;1.00
1361;DHT22;674;45.552;-122.600;2023-06-24T01:49:09;26.40;1.00
1361;DHT22;674;45.552;-122.600;2023-06-24T01:51:39;26.50;1.00
1361;DHT22;674;45.552;-122.600;2023-06-24T01:54:10;26.40;1.00
1361;DHT22;674;45.552;-122.600;2023-06-24T01:56:39;26.50;1.00
1361;DHT22;674;45.552;-122.600;2023-06-24T01:59:09;26.50;1.00
1361;DHT22;674;45.552;-122.600;2023-06-24T02:01:38;26.60;1.00
1361;DHT22;674;45.552;-122.600;2023-06-24T02:04:07;26.40;1.00
1361;DHT22;674;45.552;-122.600;2023-06-24T02:06:36;26.40;1.00
1361;DHT22;674;45.552;-122.600;2023-06-24T02:09:05;26.20;1.00
1361;DHT22;674;45.552;-122.600;2023-06-24T02:11:34;26.20;1.00
1361;DHT22;674;45.552;-122.600;2023-06-24T02:14:04;26.00;1.00
1361;DHT22;674;45.552;-122.600;2023-06-24T02:16:33;25.90;1.00
1361;DHT22;674;45.552;-122.600;2023-06-24T02:19:03;25.90;1.00
1361;DHT22;674;45.552;-122.600;2023-06-24T02:21:33;25.90;1.00
1361;DHT22;674;45.552;-122.600;2023-06-24T02:24:02;25.80;1.00
1361;DHT22;674;45.552;-122.600;2023-06-24T02:26:31;25.90;1.00
1361;DHT22;674;45.552;-122.600;2023-06-24T02:28:59;25.90;1.00
1361;DHT22;674;45.552;-122.600;2023-06-24T02:31:27;25.80;1.00
1361;DHT22;674;45.552;-122.600;2023-06-24T02:33:55;25.70;1.00
1361;DHT22;674;45.552;-122.600;2023-06-24T02:36:23;25.50;1.00
1361;DHT22;674;45.552;-122.600;2023-06-24T02:38:52;25.40;1.00
1361;DHT22;674;45.552;-122.600;2023-06-24T02:41:20;25.30;1.00
1361;DHT22;674;45.552;-122.600;2023-06-24T02:43:48;25.20;1.00
1361;DHT22;674;45.552;-122.600;2023-06-24T02:46:16;25.00;1.00
1361;DHT22;674;45.552;-122.600;2023-06-24T02:48:44;24.90;1.00
1361;DHT22;674;45.552;-122.600;2023-06-24T02:51:13;24.70;1.00
1361;DHT22;674;45.552;-122.600;2023-06-24T02:53:41;24.60;1.00
1361;DHT22;674;45.552;-122.600;2023-06-24T02:56:11;24.40;1.00
1361;DHT22;674;45.552;-122.600;2023-06-24T02:58:41;24.30;1.00
1361;DHT22;674;45.552;-122.600;2023-06-24T03:01:10;24.10;1.00
1361;DHT22;674;45.552;-122.600;2023-06-24T03:03:38;23.90;1.00
1361;DHT22;674;45.552;-122.600;2023-06-24T03:06:08;23.80;1.00
1361;DHT22;674;45.552;-122.600;2023-06-24T03:08:39;23.60;1.00
1361;DHT22;674;45.552;-122.600;2023-06-24T03:11:08;23.30;1.00
1361;DHT22;674;45.552;-122.600;2023-06-24T03:13:36;23.20;1.00
1361;DHT22;674;45.552;-122.600;2023-06-24T03:16:04;23.20;1.00
1361;DHT22;674;45.552;-122.600;2023-06-24T03:18:32;22.90;1.00
1361;DHT22;674;45.552;-122.600;2023-06-24T03:21:00;22.90;1.00
1361;DHT22;674;45.552;-122.600;2023-06-24T03:23:28;22.60;1.00
1361;DHT22;674;45.552;-122.600;2023-06-24T03:25:57;22.40;1.00
1361;DHT22;674;45.552;-122.600;2023-06-24T03:28:25;22.40;1.00
1361;DHT22;674;45.552;-122.600;2023-06-24T03:30:53;22.30;1.00
1361;DHT22;674;45.552;-122.600;2023-06-24T03:33:21;22.20;1.00
1361;DHT22;674;45.552;-122.600;2023-06-24T03:35:50;22.10;1.00
1361;DHT22;674;45.552;-122.600;2023-06-24T03:38:18;22.00;1.00
1361;DHT22;674;45.552;-122.600;2023-06-24T03:40:46;21.90;1.00
1361;DHT22;674;45.552;-122.600;2023-06-24T03:43:14;21.90;1.00
1361;DHT22;674;45.552;-122.600;2023-06-24T03:45:42;21.80;1.00
1361;DHT22;674;45.552;-122.600;2023-06-24T03:48:10;21.70;1.00
1361;DHT22;674;45.552;-122.600;2023-06-24T03:50:39;21.60;1.00
1361;DHT22;674;45.552;-122.600;2023-06-24T03:53:07;21.50;1.00
1361;DHT22;674;45.552;-122.600;2023-06-24T03:55:35;21.40;1.00
1361;DHT22;674;45.552;-122.600;2023-06-24T03:58:03;21.20;1.00
1361;DHT22;674;45.552;-122.600;2023-06-24T04:00:31;21.00;1.00
1361;DHT22;674;45.552;-122.600;2023-06-24T04:02:59;20.70;1.00
1361;DHT22;674;45.552;-122.600;2023-06-24T04:05:30;20.50;1.00
1361;DHT22;674;45.552;-122.600;2023-06-24T04:07:59;20.40;1.00
1361;DHT22;674;45.552;-122.600;2023-06-24T04:10:27;20.20;1.00
1361;DHT22;674;45.552;-122.600;2023-06-24T04:12:55;20.10;1.00
1361;DHT22;674;45.552;-122.600;2023-06-24T04:15:23;19.90;1.00
1361;DHT22;674;45.552;-122.600;2023-06-24T04:17:52;19.80;1.00
1361;DHT22;674;45.552;-122.600;2023-06-24T04:20:20;19.80;1.00
1361;DHT22;674;45.552;-122.600;2023-06-24T04:22:48;19.70;1.00
1361;DHT22;674;45.552;-122.600;2023-06-24T04:25:16;19.70;1.00
1361;DHT22;674;45.552;-122.600;2023-06-24T04:27:44;19.50;1.00
1361;DHT22;674;45.552;-122.600;2023-06-24T04:30:12;19.30;1.00
1361;DHT22;674;45.552;-122.600;2023-06-24T04:32:41;19.30;1.00
1361;DHT22;674;45.552;-122.600;2023-06-24T04:35:09;19.30;1.00
1361;DHT22;674;45.552;-122.600;2023-06-24T04:37:38;19.20;1.00
1361;DHT22;674;45.552;-122.600;2023-06-24T04:40:06;19.00;1.00
1361;DHT22;674;45.552;-122.600;2023-06-24T04:42:34;19.00;1.00
1361;DHT22;674;45.552;-122.600;2023-06-24T04:45:03;18.90;1.00
1361;DHT22;674;45.552;-122.600;2023-06-24T04:47:32;18.80;1.00
1361;DHT22;674;45.552;-122.600;2023-06-24T04:50:01;18.70;1.00
1361;DHT22;674;45.552;-122.600;2023-06-24T04:52:29;18.70;1.00
1361;DHT22;674;45.552;-122.600;2023-06-24T04:54:57;18.70;1.00
1361;DHT22;674;45.552;-122.600;2023-06-24T04:59:53;18.50;1.00
1361;DHT22;674;45.552;-122.600;2023-06-24T05:02:21;18.50;1.00
1361;DHT22;674;45.552;-122.600;2023-06-24T05:04:51;18.30;1.00
1361;DHT22;674;45.552;-122.600;2023-06-24T05:07:19;18.10;1.00
1361;DHT22;674;45.552;-122.600;2023-06-24T05:09:48;18.10;1.00
1361;DHT22;674;45.552;-122.600;2023-06-24T05:12:16;18.10;1.00
1361;DHT22;674;45.552;-122.600;2023-06-24T05:14:48;18.10;1.00
1361;DHT22;674;45.552;-122.600;2023-06-24T05:17:17;18.00;1.00
1361;DHT22;674;45.552;-122.600;2023-06-24T05:19:45;17.90;1.00
1361;DHT22;674;45.552;-122.600;2023-06-24T05:22:13;17.90;1.00
1361;DHT22;674;45.552;-122.600;2023-06-24T05:24:41;17.80;1.00
1361;DHT22;674;45.552;-122.600;2023-06-24T05:27:10;17.70;1.00
1361;DHT22;674;45.552;-122.600;2023-06-24T05:29:38;17.70;1.00
1361;DHT22;674;45.552;-122.600;2023-06-24T05:32:06;17.60;1.00
1361;DHT22;674;45.552;-122.600;2023-06-24T05:34:35;17.60;1.00
1361;DHT22;674;45.552;-122.600;2023-06-24T05:37:03;17.50;1.00
1361;DHT22;674;45.552;-122.600;2023-06-24T05:39:31;17.40;1.00
1361;DHT22;674;45.552;-122.600;2023-06-24T05:41:59;17.30;1.00
1361;DHT22;674;45.552;-122.600;2023-06-24T05:44:27;17.20;1.00
1361;DHT22;674;45.552;-122.600;2023-06-24T05:46:55;17.20;1.00
1361;DHT22;674;45.552;-122.600;2023-06-24T05:49:24;17.10;1.00
1361;DHT22;674;45.552;-122.600;2023-06-24T05:51:52;16.90;1.00
1361;DHT22;674;45.552;-122.600;2023-06-24T05:54:20;16.90;1.00
1361;DHT22;674;45.552;-122.600;2023-06-24T05:56:48;16.90;1.00
1361;DHT22;674;45.552;-122.600;2023-06-24T05:59:16;16.80;1.00
1361;DHT22;674;45.552;-122.600;2023-06-24T06:01:44;16.80;1.00
1361;DHT22;674;45.552;-122.600;2023-06-24T06:04:12;16.70;1.00
1361;DHT22;674;45.552;-122.600;2023-06-24T06:06:41;16.70;1.00
1361;DHT22;674;45.552;-122.600;2023-06-24T06:09:09;16.70;1.00
1361;DHT22;674;45.552;-122.600;2023-06-24T06:11:37;16.60;1.00
1361;DHT22;674;45.552;-122.600;2023-06-24T06:14:05;16.60;1.00
1361;DHT22;674;45.552;-122.600;2023-06-24T06:16:33;16.60;1.00
1361;DHT22;674;45.552;-122.600;2023-06-24T06:19:02;16.50;1.00
1361;DHT22;674;45.552;-122.600;2023-06-24T06:21:31;16.40;1.00
1361;DHT22;674;45.552;-122.600;2023-06-24T06:23:59;16.30;1.00
1361;DHT22;674;45.552;-122.600;2023-06-24T06:26:27;16.30;1.00
1361;DHT22;674;45.552;-122.600;2023-06-24T06:28:55;16.20;1.00
1361;DHT22;674;45.552;-122.600;2023-06-24T06:31:23;16.10;1.00
1361;DHT22;674;45.552;-122.600;2023-06-24T06:33:53;16.10;1.00
1361;DHT22;674;45.552;-122.600;2023-06-24T06:36:21;16.10;1.00
1361;DHT22;674;45.552;-122.600;2023-06-24T06:38:50;16.10;1.00
1361;DHT22;674;45.552;-122.600;2023-06-24T06:41:18;16.10;1.00
1361;DHT22;674;45.552;-122.600;2023-06-24T06:43:52;16.10;1.00
1361;DHT22;674;45.552;-122.600;2023-06-24T06:46:20;16.00;1.00
1361;DHT22;674;45.552;-122.600;2023-06-24T06:48:48;16.00;1.00
1361;DHT22;674;45.552;-122.600;2023-06-24T06:51:16;15.90;1.00
1361;DHT22;674;45.552;-122.600;2023-06-24T06:53:46;15.90;1.00
1361;DHT22;674;45.552;-122.600;2023-06-24T06:56:23;15.80;1.00
1361;DHT22;674;45.552;-122.600;2023-06-24T06:58:52;15.80;1.00
1361;DHT22;674;45.552;-122.600;2023-06-24T07:01:20;15.70;1.00
1361;DHT22;674;45.552;-122.600;2023-06-24T07:03:49;15.70;1.00
1361;DHT22;674;45.552;-122.600;2023-06-24T07:06:17;15.70;1.00
1361;DHT22;674;45.552;-122.600;2023-06-24T07:08:46;15.70;1.00
1361;DHT22;674;45.552;-122.600;2023-06-24T07:11:14;15.70;1.00
1361;DHT22;674;45.552;-122.600;2023-06-24T07:13:43;15.60;1.00
1361;DHT22;674;45.552;-122.600;2023-06-24T07:16:12;15.60;1.00
1361;DHT22;674;45.552;-122.600;2023-06-24T07:18:40;15.50;1.00
1361;DHT22;674;45.552;-122.600;2023-06-24T07:21:08;15.50;1.00
1361;DHT22;674;45.552;-122.600;2023-06-24T07:23:38;15.40;1.00
1361;DHT22;674;45.552;-122.600;2023-06-24T07:26:07;15.40;1.00
1361;DHT22;674;45.552;-122.600;2023-06-24T07:28:35;15.40;1.00
1361;DHT22;674;45.552;-122.600;2023-06-24T07:31:03;15.40;1.00
1361;DHT22;674;45.552;-122.600;2023-06-24T07:33:31;15.40;1.00
1361;DHT22;674;45.552;-122.600;2023-06-24T07:35:59;15.40;1.00
1361;DHT22;674;45.552;-122.600;2023-06-24T07:38:30;15.30;1.00
1361;DHT22;674;45.552;-122.600;2023-06-24T07:40:58;15.20;1.00
1361;DHT22;674;45.552;-122.600;2023-06-24T07:43:26;15.10;1.00
1361;DHT22;674;45.552;-122.600;2023-06-24T07:45:55;15.10;1.00
1361;DHT22;674;45.552;-122.600;2023-06-24T07:48:23;15.20;1.00
1361;DHT22;674;45.552;-122.600;2023-06-24T07:50:51;15.10;1.00
1361;DHT22;674;45.552;-122.600;2023-06-24T07:53:19;15.10;1.00
1361;DHT22;674;45.552;-122.600;2023-06-24T07:55:47;15.10;1.00
1361;DHT22;674;45.552;-122.600;2023-06-24T07:58:15;15.00;1.00
1361;DHT22;674;45.552;-122.600;2023-06-24T08:00:43;15.00;1.00
1361;DHT22;674;45.552;-122.600;2023-06-24T08:03:12;14.90;1.00
1361;DHT22;674;45.552;-122.600;2023-06-24T08:05:41;14.90;1.00
1361;DHT22;674;45.552;-122.600;2023-06-24T08:08:09;14.80;1.00
1361;DHT22;674;45.552;-122.600;2023-06-24T08:10:37;14.80;1.00
1361;DHT22;674;45.552;-122.600;2023-06-24T08:13:05;14.80;1.00
1361;DHT22;674;45.552;-122.600;2023-06-24T08:15:34;14.60;1.00
1361;DHT22;674;45.552;-122.600;2023-06-24T08:18:04;14.70;1.00
1361;DHT22;674;45.552;-122.600;2023-06-24T08:20:32;14.70;1.00
1361;DHT22;674;45.552;-122.600;2023-06-24T08:23:00;14.70;1.00
1361;DHT22;674;45.552;-122.600;2023-06-24T08:25:29;14.70;1.00
1361;DHT22;674;45.552;-122.600;2023-06-24T08:27:58;14.70;1.00
1361;DHT22;674;45.552;-122.600;2023-06-24T08:30:26;14.70;1.00
1361;DHT22;674;45.552;-122.600;2023-06-24T08:32:55;14.60;1.00
1361;DHT22;674;45.552;-122.600;2023-06-24T08:35:23;14.60;1.00
1361;DHT22;674;45.552;-122.600;2023-06-24T08:37:51;14.50;1.00
1361;DHT22;674;45.552;-122.600;2023-06-24T08:40:19;14.50;1.00
1361;DHT22;674;45.552;-122.600;2023-06-24T08:42:47;14.50;1.00
1361;DHT22;674;45.552;-122.600;2023-06-24T08:45:15;14.50;1.00
1361;DHT22;674;45.552;-122.600;2023-06-24T08:47:43;14.50;1.00
1361;DHT22;674;45.552;-122.600;2023-06-24T08:50:13;14.50;1.00
1361;DHT22;674;45.552;-122.600;2023-06-24T08:52:59;14.50;1.00
1361;DHT22;674;45.552;-122.600;2023-06-24T08:55:29;14.40;1.00
1361;DHT22;674;45.552;-122.600;2023-06-24T08:57:59;14.30;1.00
1361;DHT22;674;45.552;-122.600;2023-06-24T09:00:28;14.30;1.00
1361;DHT22;674;45.552;-122.600;2023-06-24T09:02:56;14.30;1.00
1361;DHT22;674;45.552;-122.600;2023-06-24T09:05:24;14.20;1.00
1361;DHT22;674;45.552;-122.600;2023-06-24T09:07:53;14.20;1.00
1361;DHT22;674;45.552;-122.600;2023-06-24T09:10:42;14.20;1.00
1361;DHT22;674;45.552;-122.600;2023-06-24T09:13:09;14.10;1.00
1361;DHT22;674;45.552;-122.600;2023-06-24T09:15:38;13.90;1.00
1361;DHT22;674;45.552;-122.600;2023-06-24T09:18:06;13.90;1.00
1361;DHT22;674;45.552;-122.600;2023-06-24T09:20:34;14.00;1.00
1361;DHT22;674;45.552;-122.600;2023-06-24T09:23:07;13.90;1.00
1361;DHT22;674;45.552;-122.600;2023-06-24T09:25:35;13.90;1.00
1361;DHT22;674;45.552;-122.600;2023-06-24T09:28:04;13.90;1.00
1361;DHT22;674;45.552;-122.600;2023-06-24T09:30:32;13.90;1.00
1361;DHT22;674;45.552;-122.600;2023-06-24T09:33:00;13.90;1.00
1361;DHT22;674;45.552;-122.600;2023-06-24T09:35:28;13.90;1.00
1361;DHT22;674;45.552;-122.600;2023-06-24T09:38:02;13.90;1.00
1361;DHT22;674;45.552;-122.600;2023-06-24T09:40:31;13.90;1.00
1361;DHT22;674;45.552;-122.600;2023-06-24T09:43:02;13.80;1.00
1361;DHT22;674;45.552;-122.600;2023-06-24T09:45:31;13.80;1.00
1361;DHT22;674;45.552;-122.600;2023-06-24T09:48:00;13.80;1.00
1361;DHT22;674;45.552;-122.600;2023-06-24T09:50:28;13.80;1.00
1361;DHT22;674;45.552;-122.600;2023-06-24T09:52:58;13.80;1.00
1361;DHT22;674;45.552;-122.600;2023-06-24T09:55:26;13.70;1.00
1361;DHT22;674;45.552;-122.600;2023-06-24T09:57:55;13.70;1.00
1361;DHT22;674;45.552;-122.600;2023-06-24T10:00:24;13.70;1.00
1361;DHT22;674;45.552;-122.600;2023-06-24T10:02:53;13.70;1.00
1361;DHT22;674;45.552;-122.600;2023-06-24T10:05:26;13.70;1.00
1361;DHT22;674;45.552;-122.600;2023-06-24T10:07:55;13.60;1.00
1361;DHT22;674;45.552;-122.600;2023-06-24T10:10:23;13.60;1.00
1361;DHT22;674;45.552;-122.600;2023-06-24T10:12:51;13.50;1.00
1361;DHT22;674;45.552;-122.600;2023-06-24T10:15:19;13.50;1.00
1361;DHT22;674;45.552;-122.600;2023-06-24T10:17:47;13.50;1.00
1361;DHT22;674;45.552;-122.600;2023-06-24T10:20:25;13.50;1.00
1361;DHT22;674;45.552;-122.600;2023-06-24T10:22:54;13.50;1.00
1361;DHT22;674;45.552;-122.600;2023-06-24T10:25:22;13.40;1.00
1361;DHT22;674;45.552;-122.600;2023-06-24T10:27:53;13.40;1.00
1361;DHT22;674;45.552;-122.600;2023-06-24T10:30:21;13.40;1.00
1361;DHT22;674;45.552;-122.600;2023-06-24T10:32:56;13.30;1.00
1361;DHT22;674;45.552;-122.600;2023-06-24T10:35:25;13.30;1.00
1361;DHT22;674;45.552;-122.600;2023-06-24T10:37:54;13.30;1.00
1361;DHT22;674;45.552;-122.600;2023-06-24T10:40:43;13.30;1.00
1361;DHT22;674;45.552;-122.600;2023-06-24T10:45:55;13.20;1.00
1361;DHT22;674;45.552;-122.600;2023-06-24T10:48:23;13.30;1.00
1361;DHT22;674;45.552;-122.600;2023-06-24T10:50:51;13.20;1.00
1361;DHT22;674;45.552;-122.600;2023-06-24T10:53:19;13.20;1.00
1361;DHT22;674;45.552;-122.600;2023-06-24T10:55:49;13.20;1.00
1361;DHT22;674;45.552;-122.600;2023-06-24T10:58:17;13.20;1.00
1361;DHT22;674;45.552;-122.600;2023-06-24T11:00:45;13.20;1.00
1361;DHT22;674;45.552;-122.600;2023-06-24T11:03:15;13.10;1.00
1361;DHT22;674;45.552;-122.600;2023-06-24T11:05:44;13.10;1.00
1361;DHT22;674;45.552;-122.600;2023-06-24T11:08:12;13.10;1.00
1361;DHT22;674;45.552;-122.600;2023-06-24T11:10:44;13.10;1.00
1361;DHT22;674;45.552;-122.600;2023-06-24T11:13:12;13.10;1.00
1361;DHT22;674;45.552;-122.600;2023-06-24T11:15:40;13.10;1.00
1361;DHT22;674;45.552;-122.600;2023-06-24T11:18:10;13.10;1.00
1361;DHT22;674;45.552;-122.600;2023-06-24T11:20:38;13.10;1.00
1361;DHT22;674;45.552;-122.600;2023-06-24T11:23:07;13.10;1.00
1361;DHT22;674;45.552;-122.600;2023-06-24T11:25:40;13.10;1.00
1361;DHT22;674;45.552;-122.600;2023-06-24T11:28:15;13.00;1.00
1361;DHT22;674;45.552;-122.600;2023-06-24T11:30:48;13.00;1.00
1361;DHT22;674;45.552;-122.600;2023-06-24T11:33:26;12.90;1.00
1361;DHT22;674;45.552;-122.600;2023-06-24T11:35:55;12.90;1.00
1361;DHT22;674;45.552;-122.600;2023-06-24T11:38:23;12.90;1.00
1361;DHT22;674;45.552;-122.600;2023-06-24T11:40:57;12.90;1.00
1361;DHT22;674;45.552;-122.600;2023-06-24T11:43:25;12.90;1.00
1361;DHT22;674;45.552;-122.600;2023-06-24T11:45:54;12.80;1.00
1361;DHT22;674;45.552;-122.600;2023-06-24T11:48:22;12.80;1.00
1361;DHT22;674;45.552;-122.600;2023-06-24T11:50:53;12.70;1.00
1361;DHT22;674;45.552;-122.600;2023-06-24T11:53:40;12.80;1.00
1361;DHT22;674;45.552;-122.600;2023-06-24T11:56:10;12.70;1.00
1361;DHT22;674;45.552;-122.600;2023-06-24T11:58:38;12.70;1.00
1361;DHT22;674;45.552;-122.600;2023-06-24T12:01:07;12.70;1.00
1361;DHT22;674;45.552;-122.600;2023-06-24T12:03:35;12.70;1.00
1361;DHT22;674;45.552;-122.600;2023-06-24T12:06:04;12.70;1.00
1361;DHT22;674;45.552;-122.600;2023-06-24T12:08:32;12.70;1.00
1361;DHT22;674;45.552;-122.600;2023-06-24T12:11:17;12.70;1.00
1361;DHT22;674;45.552;-122.600;2023-06-24T12:13:45;12.70;1.00
1361;DHT22;674;45.552;-122.600;2023-06-24T12:16:13;12.60;1.00
1361;DHT22;674;45.552;-122.600;2023-06-24T12:18:42;12.70;1.00
1361;DHT22;674;45.552;-122.600;2023-06-24T12:21:10;12.70;1.00
1361;DHT22;674;45.552;-122.600;2023-06-24T12:23:38;12.60;1.00
1361;DHT22;674;45.552;-122.600;2023-06-24T12:26:06;12.60;1.00
1361;DHT22;674;45.552;-122.600;2023-06-24T12:28:34;12.70;1.00
1361;DHT22;674;45.552;-122.600;2023-06-24T12:31:02;12.70;1.00
1361;DHT22;674;45.552;-122.600;2023-06-24T12:33:31;12.60;1.00
1361;DHT22;674;45.552;-122.600;2023-06-24T12:35:59;12.60;1.00
1361;DHT22;674;45.552;-122.600;2023-06-24T12:38:27;12.60;1.00
1361;DHT22;674;45.552;-122.600;2023-06-24T12:40:56;12.50;1.00
1361;DHT22;674;45.552;-122.600;2023-06-24T12:43:24;12.50;1.00
1361;DHT22;674;45.552;-122.600;2023-06-24T12:45:52;12.60;1.00
1361;DHT22;674;45.552;-122.600;2023-06-24T12:48:20;12.60;1.00
1361;DHT22;674;45.552;-122.600;2023-06-24T12:50:49;12.60;1.00
1361;DHT22;674;45.552;-122.600;2023-06-24T12:53:20;12.60;1.00
1361;DHT22;674;45.552;-122.600;2023-06-24T12:55:49;12.60;1.00
1361;DHT22;674;45.552;-122.600;2023-06-24T12:58:22;12.60;1.00
1361;DHT22;674;45.552;-122.600;2023-06-24T13:00:50;12.60;1.00
1361;DHT22;674;45.552;-122.600;2023-06-24T13:03:19;12.60;1.00
1361;DHT22;674;45.552;-122.600;2023-06-24T13:05:47;12.60;1.00
1361;DHT22;674;45.552;-122.600;2023-06-24T13:08:15;12.60;1.00
1361;DHT22;674;45.552;-122.600;2023-06-24T13:10:43;12.70;1.00
1361;DHT22;674;45.552;-122.600;2023-06-24T13:13:11;12.70;1.00
1361;DHT22;674;45.552;-122.600;2023-06-24T13:15:39;12.70;1.00
1361;DHT22;674;45.552;-122.600;2023-06-24T13:18:08;12.70;1.00
1361;DHT22;674;45.552;-122.600;2023-06-24T13:20:36;12.80;1.00
1361;DHT22;674;45.552;-122.600;2023-06-24T13:23:04;12.80;1.00
1361;DHT22;674;45.552;-122.600;2023-06-24T13:25:32;12.80;1.00
1361;DHT22;674;45.552;-122.600;2023-06-24T13:28:01;12.80;1.00
1361;DHT22;674;45.552;-122.600;2023-06-24T13:30:29;12.90;1.00
1361;DHT22;674;45.552;-122.600;2023-06-24T13:32:57;12.90;1.00
1361;DHT22;674;45.552;-122.600;2023-06-24T13:35:25;12.90;1.00
1361;DHT22;674;45.552;-122.600;2023-06-24T13:37:54;12.80;1.00
1361;DHT22;674;45.552;-122.600;2023-06-24T13:40:22;12.80;1.00
1361;DHT22;674;45.552;-122.600;2023-06-24T13:42:50;12.80;1.00
1361;DHT22;674;45.552;-122.600;2023-06-24T13:45:18;12.80;1.00
1361;DHT22;674;45.552;-122.600;2023-06-24T13:47:46;12.90;1.00
1361;DHT22;674;45.552;-122.600;2023-06-24T13:50:15;12.90;1.00
1361;DHT22;674;45.552;-122.600;2023-06-24T13:52:43;13.00;1.00
1361;DHT22;674;45.552;-122.600;2023-06-24T13:55:11;13.00;1.00
1361;DHT22;674;45.552;-122.600;2023-06-24T13:57:39;13.00;1.00
1361;DHT22;674;45.552;-122.600;2023-06-24T14:00:07;13.10;1.00
1361;DHT22;674;45.552;-122.600;2023-06-24T14:02:36;13.20;1.00
1361;DHT22;674;45.552;-122.600;2023-06-24T14:05:05;13.20;1.00
1361;DHT22;674;45.552;-122.600;2023-06-24T14:07:33;13.30;1.00
1361;DHT22;674;45.552;-122.600;2023-06-24T14:10:02;13.40;1.00
1361;DHT22;674;45.552;-122.600;2023-06-24T14:12:30;13.50;1.00
1361;DHT22;674;45.552;-122.600;2023-06-24T14:14:59;13.60;1.00
1361;DHT22;674;45.552;-122.600;2023-06-24T14:17:27;13.60;1.00
1361;DHT22;674;45.552;-122.600;2023-06-24T14:19:55;13.70;1.00
1361;DHT22;674;45.552;-122.600;2023-06-24T14:22:23;13.70;1.00
1361;DHT22;674;45.552;-122.600;2023-06-24T14:24:53;13.70;1.00
1361;DHT22;674;45.552;-122.600;2023-06-24T14:27:21;13.80;1.00
1361;DHT22;674;45.552;-122.600;2023-06-24T14:29:50;13.90;1.00
1361;DHT22;674;45.552;-122.600;2023-06-24T14:32:18;13.90;1.00
1361;DHT22;674;45.552;-122.600;2023-06-24T14:34:46;14.00;1.00
1361;DHT22;674;45.552;-122.600;2023-06-24T14:37:14;14.00;1.00
1361;DHT22;674;45.552;-122.600;2023-06-24T14:39:42;14.10;1.00
1361;DHT22;674;45.552;-122.600;2023-06-24T14:42:13;14.20;1.00
1361;DHT22;674;45.552;-122.600;2023-06-24T14:44:41;14.20;1.00
1361;DHT22;674;45.552;-122.600;2023-06-24T14:47:09;14.30;1.00
1361;DHT22;674;45.552;-122.600;2023-06-24T14:49:38;14.40;1.00
1361;DHT22;674;45.552;-122.600;2023-06-24T14:52:06;14.40;1.00
1361;DHT22;674;45.552;-122.600;2023-06-24T14:54:34;14.40;1.00
1361;DHT22;674;45.552;-122.600;2023-06-24T14:57:02;14.50;1.00
1361;DHT22;674;45.552;-122.600;2023-06-24T14:59:31;14.60;1.00
1361;DHT22;674;45.552;-122.600;2023-06-24T15:02:02;14.60;1.00
1361;DHT22;674;45.552;-122.600;2023-06-24T15:04:30;14.70;1.00
1361;DHT22;674;45.552;-122.600;2023-06-24T15:06:59;14.80;1.00
1361;DHT22;674;45.552;-122.600;2023-06-24T15:09:27;14.80;1.00
1361;DHT22;674;45.552;-122.600;2023-06-24T15:11:55;14.90;1.00
1361;DHT22;674;45.552;-122.600;2023-06-24T15:14:23;14.90;1.00
1361;DHT22;674;45.552;-122.600;2023-06-24T15:16:52;15.00;1.00
1361;DHT22;674;45.552;-122.600;2023-06-24T15:19:21;15.10;1.00
1361;DHT22;674;45.552;-122.600;2023-06-24T15:21:49;15.10;1.00
1361;DHT22;674;45.552;-122.600;2023-06-24T15:24:17;15.20;1.00
1361;DHT22;674;45.552;-122.600;2023-06-24T15:26:45;15.20;1.00
1361;DHT22;674;45.552;-122.600;2023-06-24T15:29:14;15.20;1.00
1361;DHT22;674;45.552;-122.600;2023-06-24T15:31:42;15.20;1.00
1361;DHT22;674;45.552;-122.600;2023-06-24T15:34:10;15.30;1.00
1361;DHT22;674;45.552;-122.600;2023-06-24T15:36:39;15.40;1.00
1361;DHT22;674;45.552;-122.600;2023-06-24T15:39:08;15.50;1.00
1361;DHT22;674;45.552;-122.600;2023-06-24T15:41:36;15.50;1.00
1361;DHT22;674;45.552;-122.600;2023-06-24T15:44:04;15.60;1.00
1361;DHT22;674;45.552;-122.600;2023-06-24T15:46:32;15.60;1.00
1361;DHT22;674;45.552;-122.600;2023-06-24T15:49:00;15.70;1.00
1361;DHT22;674;45.552;-122.600;2023-06-24T15:51:29;15.70;1.00
1361;DHT22;674;45.552;-122.600;2023-06-24T15:53:57;15.70;1.00
1361;DHT22;674;45.552;-122.600;2023-06-24T15:56:25;15.80;1.00
1361;DHT22;674;45.552;-122.600;2023-06-24T15:58:53;15.90;1.00
1361;DHT22;674;45.552;-122.600;2023-06-24T16:01:21;15.90;1.00
1361;DHT22;674;45.552;-122.600;2023-06-24T16:03:49;15.90;1.00
1361;DHT22;674;45.552;-122.600;2023-06-24T16:06:18;16.10;1.00
1361;DHT22;674;45.552;-122.600;2023-06-24T16:08:47;16.10;1.00
1361;DHT22;674;45.552;-122.600;2023-06-24T16:11:15;16.10;1.00
1361;DHT22;674;45.552;-122.600;2023-06-24T16:13:43;16.10;1.00